Time;durP1;ratioP1;P1;durP2;ratioP2;P2;SDS_P1;SDS_P2;PMS_P1;PMS_P2;Temp;Humidity;BMP_temperature;BMP_pressure;BME280_temperature;BME280_humidity;BME280_pressure;Samples;Min_cycle;Max_cycle;Signal;HPM_P1;HPM_P2
2022/09/07 00:01:02;;;;;;;9.35;6.90;;;19.50;99.90;;;;;;5054331;28;20051;-79
2022/09/07 00:03:28;;;;;;;12.73;7.20;;;19.60;99.90;;;;;;5071277;28;20039;-79
2022/09/07 00:05:53;;;;;;;;;;;19.50;99.90;;;;;;5054276;28;20065;-79
2022/09/07 00:08:22;;;;;;;10.73;7.88;;;19.50;99.90;;;;;;5020666;28;20012;-77
2022/09/07 00:10:57;;;;;;;11.43;7.63;;;19.50;99.90;;;;;;5054334;28;20054;-78
2022/09/07 00:13:25;;;;;;;8.63;7.72;;;19.60;99.90;;;;;;5054224;28;20495;-78
2022/09/07 00:15:51;;;;;;;12.40;7.75;;;19.60;99.90;;;;;;5054124;28;20043;-78
2022/09/07 00:18:17;;;;;;;8.93;7.45;;;19.60;99.90;;;;;;5070711;28;20138;-78
2022/09/07 00:20:43;;;;;;;;;;;19.60;99.90;;;;;;5054423;28;20462;-77
2022/09/07 00:23:09;;;;;;;14.77;8.27;;;19.60;99.90;;;;;;5053617;28;19921;-77
2022/09/07 00:25:39;;;;;;;8.93;7.38;;;19.70;99.90;;;;;;5053995;28;20399;-78
2022/09/07 00:28:08;;;;;;;11.85;7.90;;;19.70;99.90;;;;;;5056155;28;20428;-78
2022/09/07 00:30:39;;;;;;;12.13;7.72;;;19.70;99.90;;;;;;5041133;28;20054;-78
2022/09/07 00:33:04;;;;;;;10.18;7.57;;;19.70;99.90;;;;;;5074443;28;20043;-78
2022/09/07 00:35:30;;;;;;;11.88;7.85;;;19.60;99.90;;;;;;5040694;28;20141;-78
2022/09/07 00:37:56;;;;;;;13.05;8.00;;;19.70;99.90;;;;;;5040877;28;20086;-78
2022/09/07 00:40:21;;;;;;;8.85;7.50;;;19.70;99.90;;;;;;5040466;28;20035;-78
2022/09/07 00:42:47;;;;;;;14.77;8.68;;;19.60;99.90;;;;;;5040796;28;20047;-78
2022/09/07 00:45:20;;;;;;;11.00;7.68;;;19.50;99.90;;;;;;5040811;28;20092;-78
2022/09/07 00:48:01;;;;;;;9.75;8.13;;;19.40;99.90;;;;;;5056885;28;20035;-78
2022/09/07 00:50:54;;;;;;;10.30;8.18;;;19.40;99.90;;;;;;5074333;28;20070;-78
2022/09/07 00:53:30;;;;;;;11.90;8.95;;;19.40;99.90;;;;;;5074079;28;20047;-78
2022/09/07 00:55:58;;;;;;;11.55;8.75;;;19.40;99.90;;;;;;5057415;28;20050;-78
2022/09/07 00:58:24;;;;;;;10.18;8.68;;;19.30;99.90;;;;;;5057226;28;20046;-78
2022/09/07 01:00:50;;;;;;;;;;;19.30;99.90;;;;;;5040915;28;20061;-78
2022/09/07 01:03:18;;;;;;;10.20;8.68;;;19.30;99.90;;;;;;5057103;28;19918;-78
2022/09/07 01:06:05;;;;;;;11.05;8.80;;;19.30;99.90;;;;;;5040645;28;20130;-78
2022/09/07 01:08:34;;;;;;;11.65;8.80;;;19.20;99.90;;;;;;5073830;28;20128;-78
2022/09/07 01:11:00;;;;;;;12.13;9.25;;;19.10;99.90;;;;;;5040873;28;20038;-78
2022/09/07 01:13:26;;;;;;;10.68;8.73;;;19.10;99.90;;;;;;5057020;28;20054;-78
2022/09/07 01:16:08;;;;;;;10.07;8.55;;;19.00;99.90;;;;;;5040260;28;20043;-78
2022/09/07 01:18:59;;;;;;;9.63;8.63;;;19.00;99.90;;;;;;5040420;28;20212;-78
2022/09/07 01:21:26;;;;;;;10.15;9.07;;;18.90;99.90;;;;;;5056852;28;20050;-78
2022/09/07 01:24:02;;;;;;;11.95;9.02;;;19.00;99.90;;;;;;5056484;28;20065;-78
2022/09/07 01:26:43;;;;;;;14.68;9.77;;;19.00;99.90;;;;;;5073472;28;20046;-78
2022/09/07 01:29:08;;;;;;;17.25;10.80;;;18.90;99.90;;;;;;5056833;28;20058;-78
2022/09/07 01:31:47;;;;;;;20.70;11.73;;;18.90;99.90;;;;;;5073269;28;20046;-81
2022/09/07 01:34:20;;;;;;;20.95;13.10;;;18.80;99.90;;;;;;5073561;28;20043;-82
2022/09/07 01:36:51;;;;;;;22.83;14.45;;;18.50;99.90;;;;;;5074268;28;20518;-82
2022/09/07 01:39:24;;;;;;;20.73;14.55;;;18.30;99.90;;;;;;5073757;28;20511;-82
2022/09/07 01:42:00;;;;;;;44.03;17.35;;;18.10;99.90;;;;;;5056953;28;20130;-83
2022/09/07 01:44:48;;;;;;;38.15;19.08;;;17.90;99.90;;;;;;5039725;28;20039;-78
2022/09/07 01:47:17;;;;;;;35.83;19.77;;;17.60;99.90;;;;;;5073464;28;20148;-79
2022/09/07 01:49:48;;;;;;;27.38;18.10;;;17.40;99.90;;;;;;5075498;28;20076;-81
2022/09/07 01:52:26;;;;;;;22.80;16.00;;;17.30;99.90;;;;;;5073820;28;20127;-81
2022/09/07 01:55:15;;;;;;;29.77;19.70;;;17.30;99.90;;;;;;5073878;28;20042;-81
2022/09/07 01:58:07;;;;;;;21.88;13.90;;;17.30;99.90;;;;;;5073734;28;20404;-81
2022/09/07 02:00:34;;;;;;;25.40;16.90;;;17.30;99.90;;;;;;5039641;28;20427;-80
2022/09/07 02:03:13;;;;;;;27.92;17.85;;;17.20;99.90;;;;;;5072902;28;20069;-81
2022/09/07 02:05:57;;;;;;;22.05;17.17;;;17.20;99.90;;;;;;5073952;28;20167;-79
2022/09/07 02:08:55;;;;;;;21.05;16.13;;;17.10;99.90;;;;;;5023243;28;20096;-80
2022/09/07 02:11:28;;;;;;;;;;;17.20;99.90;;;;;;5056852;28;20100;-79
2022/09/07 02:13:59;;;;;;;16.90;11.73;;;17.20;99.90;;;;;;5073307;28;19918;-80
2022/09/07 02:16:30;;;;;;;14.60;11.20;;;17.30;99.90;;;;;;5039764;28;20047;-80
2022/09/07 02:19:04;;;;;;;15.68;10.60;;;17.30;99.90;;;;;;5073263;28;20141;-79
2022/09/07 02:21:38;;;;;;;9.77;7.63;;;17.20;99.90;;;;;;5039434;28;20051;-80
2022/09/07 02:24:14;;;;;;;14.85;9.20;;;17.10;99.90;;;;;;5056601;28;20488;-80
2022/09/07 02:26:41;;;;;;;9.32;7.15;;;17.10;99.90;;;;;;5056566;28;20038;-80
2022/09/07 02:29:07;;;;;;;6.95;5.10;;;16.90;99.90;;;;;;5039345;28;20042;-80
2022/09/07 02:31:33;;;;;;;8.13;6.30;;;17.00;99.90;;;;;;5039433;28;20078;-80
2022/09/07 02:34:00;;;;;;;10.52;7.45;;;17.00;99.90;;;;;;5039371;28;20104;-80
2022/09/07 02:36:32;;;;;;;9.75;5.90;;;17.10;99.90;;;;;;5072788;28;20061;-81
2022/09/07 02:38:58;;;;;;;8.73;6.05;;;17.10;99.90;;;;;;5039277;28;20121;-80
2022/09/07 02:41:36;;;;;;;8.35;5.93;;;17.00;99.90;;;;;;5039363;28;20117;-80
2022/09/07 02:44:06;;;;;;;6.97;5.60;;;17.00;99.90;;;;;;5055689;28;20047;-80
2022/09/07 02:47:01;;;;;;;8.93;6.25;;;16.90;99.90;;;;;;5055459;28;20031;-80
2022/09/07 02:50:05;;;;;;;12.13;7.05;;;16.90;99.90;;;;;;5038817;28;20050;-80
2022/09/07 02:52:52;;;;;;;11.10;7.53;;;16.90;99.90;;;;;;5029449;28;20121;-80
2022/09/07 02:55:36;;;;;;;10.05;7.30;;;16.90;99.90;;;;;;5039199;28;20035;-80
2022/09/07 02:58:25;;;;;;;8.88;6.97;;;16.90;99.90;;;;;;5039241;28;20039;-80
2022/09/07 03:00:54;;;;;;;9.95;7.57;;;16.90;99.90;;;;;;5038203;28;20082;-80
2022/09/07 03:03:30;;;;;;;11.52;7.90;;;16.90;99.90;;;;;;5038459;28;20039;-79
2022/09/07 03:06:03;;;;;;;12.18;8.65;;;16.90;99.90;;;;;;5038713;28;20122;-80
2022/09/07 03:08:51;;;;;;;11.65;8.05;;;17.00;99.90;;;;;;5072160;28;20119;-79
2022/09/07 03:11:17;;;;;;;9.25;7.07;;;17.00;99.90;;;;;;5072066;28;20096;-79
2022/09/07 03:13:42;;;;;;;9.68;6.30;;;17.10;99.90;;;;;;5038314;28;20082;-79
2022/09/07 03:16:12;;;;;;;10.13;7.10;;;17.10;99.90;;;;;;5038556;28;20139;-79
2022/09/07 03:18:39;;;;;;;8.15;6.30;;;17.10;99.90;;;;;;5054665;28;20088;-79
2022/09/07 03:21:04;;;;;;;;;;;17.10;99.90;;;;;;5055679;28;20039;-79
2022/09/07 03:23:30;;;;;;;8.00;6.15;;;17.10;99.90;;;;;;5055135;28;19924;-79
2022/09/07 03:25:56;;;;;;;8.55;7.22;;;17.10;99.90;;;;;;5055005;28;20132;-79
2022/09/07 03:28:21;;;;;;;10.98;7.47;;;17.10;99.90;;;;;;5038143;28;20096;-79
2022/09/07 03:30:47;;;;;;;9.25;7.65;;;17.10;99.90;;;;;;5038474;28;20097;-79
2022/09/07 03:33:16;;;;;;;8.95;7.22;;;17.00;99.90;;;;;;5038205;28;20069;-79
2022/09/07 03:35:55;;;;;;;8.40;7.53;;;17.00;99.90;;;;;;5054457;28;20050;-79
2022/09/07 03:38:21;;;;;;;7.60;6.80;;;17.00;99.90;;;;;;5054859;28;20492;-79
2022/09/07 03:40:57;;;;;;;7.35;6.47;;;17.00;99.90;;;;;;5054852;28;20046;-79
2022/09/07 03:43:23;;;;;;;7.88;6.90;;;17.00;99.90;;;;;;5038243;28;20435;-79
2022/09/07 03:45:49;;;;;;;13.88;8.77;;;17.00;99.90;;;;;;5037914;28;20058;-80
2022/09/07 03:48:15;;;;;;;9.80;7.55;;;17.00;99.90;;;;;;5038392;28;20480;-80
2022/09/07 03:50:40;;;;;;;13.75;9.63;;;17.10;99.90;;;;;;5054817;28;20053;-80
2022/09/07 03:53:06;;;;;;;13.45;8.82;;;17.10;99.90;;;;;;5037879;28;20050;-80
2022/09/07 03:55:31;;;;;;;8.73;7.05;;;17.10;99.90;;;;;;5037517;28;20039;-80
2022/09/07 03:57:57;;;;;;;8.00;7.20;;;17.10;99.90;;;;;;5037661;28;20031;-80
2022/09/07 04:00:23;;;;;;;8.98;7.45;;;17.00;99.90;;;;;;5037644;28;20126;-80
2022/09/07 04:02:48;;;;;;;9.50;7.10;;;17.00;99.90;;;;;;5039660;28;20590;-79
2022/09/07 04:05:14;;;;;;;9.15;7.68;;;16.90;99.90;;;;;;5041890;28;20488;-80
2022/09/07 04:07:40;;;;;;;9.90;8.30;;;16.90;99.90;;;;;;5041511;28;20054;-79
2022/09/07 04:10:06;;;;;;;10.15;8.05;;;16.80;99.90;;;;;;5041643;28;20039;-79
2022/09/07 04:12:31;;;;;;;10.45;9.07;;;16.80;99.90;;;;;;5058682;28;20053;-80
2022/09/07 04:14:57;;;;;;;10.00;8.35;;;16.80;99.90;;;;;;5041291;28;20042;-80
2022/09/07 04:17:23;;;;;;;14.90;10.25;;;16.80;99.90;;;;;;5058186;28;20042;-80
2022/09/07 04:19:48;;;;;;;12.73;10.00;;;16.70;99.90;;;;;;5074900;28;20073;-79
2022/09/07 04:22:14;;;;;;;14.27;10.48;;;16.70;99.90;;;;;;5074974;28;20051;-79
2022/09/07 04:24:40;;;;;;;14.45;11.15;;;16.70;99.90;;;;;;5074929;28;20381;-79
2022/09/07 04:27:05;;;;;;;12.82;10.07;;;16.70;99.90;;;;;;5075031;28;20121;-79
2022/09/07 04:29:31;;;;;;;14.05;10.98;;;16.70;99.90;;;;;;5074879;28;20046;-80
2022/09/07 04:31:57;;;;;;;17.25;13.10;;;16.70;99.90;;;;;;5058149;28;20050;-79
2022/09/07 04:34:22;;;;;;;15.55;11.85;;;16.60;99.90;;;;;;5075436;28;20061;-79
2022/09/07 04:36:48;;;;;;;16.30;12.15;;;16.60;99.90;;;;;;5058578;28;20042;-79
2022/09/07 04:39:14;;;;;;;16.25;10.90;;;16.60;99.90;;;;;;5075069;28;20054;-80
2022/09/07 04:41:39;;;;;;;15.60;12.70;;;16.60;99.90;;;;;;5074662;28;20046;-80
2022/09/07 04:44:06;;;;;;;15.30;12.57;;;16.60;99.90;;;;;;5074646;28;20034;-79
2022/09/07 04:46:34;;;;;;;17.20;12.52;;;16.60;99.90;;;;;;5040857;28;20038;-79
2022/09/07 04:49:01;;;;;;;15.85;12.55;;;16.50;99.90;;;;;;5040998;28;20039;-80
2022/09/07 04:51:29;;;;;;;14.02;11.73;;;16.60;99.90;;;;;;5040983;28;20050;-79
2022/09/07 04:53:56;;;;;;;15.77;11.90;;;16.50;99.90;;;;;;5040916;28;20050;-80
2022/09/07 04:56:23;;;;;;;14.88;12.38;;;16.50;99.90;;;;;;5041280;28;20050;-80
2022/09/07 04:58:49;;;;;;;;;;;16.50;99.90;;;;;;5041004;28;20057;-80
2022/09/07 05:01:17;;;;;;;16.55;12.95;;;16.50;99.90;;;;;;5057245;28;19928;-80
2022/09/07 05:03:44;;;;;;;20.45;15.13;;;16.50;99.90;;;;;;5057412;28;20446;-80
2022/09/07 05:06:11;;;;;;;19.13;13.90;;;16.50;99.90;;;;;;5074156;28;20077;-80
2022/09/07 05:08:38;;;;;;;26.85;18.17;;;16.50;99.90;;;;;;5057447;28;20489;-79
2022/09/07 05:11:04;;;;;;;19.52;16.63;;;16.40;99.90;;;;;;5074284;28;20104;-80
2022/09/07 05:13:30;;;;;;;22.92;17.92;;;16.40;99.90;;;;;;5073521;28;20039;-80
2022/09/07 05:15:57;;;;;;;27.52;21.27;;;16.50;99.90;;;;;;5057000;28;20129;-79
2022/09/07 05:18:23;;;;;;;34.65;22.95;;;16.40;99.90;;;;;;5040363;28;20130;-80
2022/09/07 05:20:49;;;;;;;23.65;19.50;;;16.40;99.90;;;;;;5040191;28;20123;-79
2022/09/07 05:23:15;;;;;;;29.67;22.65;;;16.50;99.90;;;;;;5057216;28;20039;-79
2022/09/07 05:25:45;;;;;;;37.13;25.73;;;16.40;99.90;;;;;;5057129;28;20179;-80
2022/09/07 05:28:12;;;;;;;36.38;23.95;;;16.50;99.90;;;;;;5039982;28;20085;-80
2022/09/07 05:30:38;;;;;;;29.58;21.33;;;16.50;99.90;;;;;;5039884;28;20050;-80
2022/09/07 05:33:06;;;;;;;30.05;21.83;;;16.50;99.90;;;;;;5040023;28;20047;-80
2022/09/07 05:35:32;;;;;;;31.33;23.13;;;16.60;99.90;;;;;;5056010;28;20062;-80
2022/09/07 05:37:58;;;;;;;33.83;23.83;;;16.50;99.90;;;;;;5073549;28;20035;-80
2022/09/07 05:40:23;;;;;;;31.92;22.80;;;16.50;99.90;;;;;;5073367;28;20039;-80
2022/09/07 05:42:49;;;;;;;30.85;22.42;;;16.50;99.90;;;;;;5073074;28;20047;-80
2022/09/07 05:45:15;;;;;;;27.40;20.90;;;16.50;99.90;;;;;;5040010;28;20043;-80
2022/09/07 05:47:41;;;;;;;29.70;22.50;;;16.50;99.90;;;;;;5023512;28;20436;-80
2022/09/07 05:50:08;;;;;;;33.22;23.60;;;16.50;99.90;;;;;;5073032;28;20125;-80
2022/09/07 05:52:34;;;;;;;36.50;25.13;;;16.60;99.90;;;;;;5039365;28;20122;-80
2022/09/07 05:55:00;;;;;;;35.28;25.75;;;16.50;99.90;;;;;;5039422;28;20045;-80
2022/09/07 05:57:25;;;;;;;35.83;27.30;;;16.50;99.90;;;;;;5039966;28;20047;-80
2022/09/07 05:59:51;;;;;;;35.15;25.55;;;16.50;99.90;;;;;;5073156;28;20078;-80
2022/09/07 06:02:17;;;;;;;39.83;28.55;;;16.50;99.90;;;;;;5072549;28;20556;-80
2022/09/07 06:04:42;;;;;;;35.10;27.33;;;16.50;99.90;;;;;;5072628;28;20147;-80
2022/09/07 06:07:12;;;;;;;36.35;26.98;;;16.60;99.90;;;;;;5055786;28;20049;-80
2022/09/07 06:09:38;;;;;;;34.33;27.58;;;16.50;99.90;;;;;;5073012;28;20491;-80
2022/09/07 06:12:05;;;;;;;;;;;16.50;99.90;;;;;;5039985;28;20129;-81
2022/09/07 06:14:31;;;;;;;36.97;28.67;;;16.60;99.90;;;;;;5055968;28;19918;-80
2022/09/07 06:16:57;;;;;;;;;;;16.60;99.90;;;;;;5056130;28;20104;-79
2022/09/07 06:19:22;;;;;;;31.63;25.00;;;16.70;99.90;;;;;;5055707;28;19922;-79
2022/09/07 06:21:48;;;;;;;40.92;28.75;;;16.70;99.90;;;;;;5055386;28;20086;-81
2022/09/07 06:24:14;;;;;;;37.65;27.75;;;16.70;99.90;;;;;;5072399;28;20043;-81
2022/09/07 06:26:39;;;;;;;35.00;25.42;;;16.70;99.90;;;;;;5055270;28;20043;-81
2022/09/07 06:29:05;;;;;;;36.63;25.60;;;16.70;99.90;;;;;;5072565;28;20030;-81
2022/09/07 06:31:31;;;;;;;36.13;29.02;;;16.70;99.90;;;;;;5072371;28;20049;-81
2022/09/07 06:33:57;;;;;;;35.22;26.05;;;16.80;99.90;;;;;;5055772;28;20074;-81
2022/09/07 06:36:26;;;;;;;;;;;16.80;99.90;;;;;;5039214;28;20049;-81
2022/09/07 06:38:53;;;;;;;40.58;29.88;;;16.80;99.90;;;;;;5055751;28;19961;-81
2022/09/07 06:41:25;;;;;;;42.20;30.33;;;16.80;99.90;;;;;;5038902;28;20042;-81
2022/09/07 06:43:52;;;;;;;43.65;31.92;;;16.90;99.90;;;;;;5055574;28;20121;-81
2022/09/07 06:46:18;;;;;;;43.67;32.97;;;16.90;99.90;;;;;;5038736;28;20047;-81
2022/09/07 06:48:44;;;;;;;46.13;36.03;;;16.80;99.90;;;;;;5072478;28;20039;-81
2022/09/07 06:51:15;;;;;;;45.75;34.28;;;16.80;99.90;;;;;;5072027;28;20042;-81
2022/09/07 06:54:04;;;;;;;53.17;36.40;;;16.70;99.90;;;;;;5055366;28;20488;-81
2022/09/07 06:56:30;;;;;;;44.47;32.80;;;16.70;99.90;;;;;;5038885;28;20055;-79
2022/09/07 06:58:58;;;;;;;46.17;34.17;;;16.70;99.90;;;;;;5072013;28;20046;-80
2022/09/07 07:01:25;;;;;;;41.53;31.38;;;16.70;99.90;;;;;;5038407;28;20169;-80
2022/09/07 07:03:52;;;;;;;50.00;34.67;;;16.70;99.90;;;;;;5055138;28;20121;-80
2022/09/07 07:06:19;;;;;;;38.58;30.20;;;16.70;99.90;;;;;;5038623;28;20412;-80
2022/09/07 07:08:45;;;;;;;40.00;30.50;;;16.80;99.90;;;;;;5054810;28;20039;-79
2022/09/07 07:11:13;;;;;;;36.28;29.17;;;16.80;99.90;;;;;;5071814;28;20053;-80
2022/09/07 07:13:41;;;;;;;37.65;29.33;;;16.90;99.90;;;;;;5021644;28;20046;-79
2022/09/07 07:16:12;;;;;;;34.63;27.80;;;16.90;99.90;;;;;;5072162;28;20452;-80
2022/09/07 07:18:39;;;;;;;35.55;28.45;;;16.90;99.90;;;;;;5037877;28;20105;-80
2022/09/07 07:21:07;;;;;;;34.75;26.80;;;16.90;99.90;;;;;;5021835;28;20086;-79
2022/09/07 07:23:34;;;;;;;37.53;29.50;;;16.90;99.90;;;;;;5038027;28;20097;-80
2022/09/07 07:26:10;;;;;;;37.28;28.58;;;16.90;99.90;;;;;;5038401;28;20369;-80
2022/09/07 07:28:37;;;;;;;30.23;23.88;;;16.90;99.90;;;;;;5037396;28;20136;-80
2022/09/07 07:31:05;;;;;;;35.25;26.85;;;16.90;99.90;;;;;;5055007;28;20090;-80
2022/09/07 07:33:35;;;;;;;29.90;24.00;;;16.90;99.90;;;;;;5038068;28;20404;-80
2022/09/07 07:36:16;;;;;;;29.77;25.25;;;16.90;99.90;;;;;;5037963;28;20046;-80
2022/09/07 07:38:44;;;;;;;29.83;24.40;;;16.90;99.90;;;;;;5037732;28;20049;-80
2022/09/07 07:41:10;;;;;;;34.05;26.02;;;17.00;99.90;;;;;;5037868;28;20043;-80
2022/09/07 07:43:36;;;;;;;31.30;26.77;;;17.00;99.90;;;;;;5038363;28;20461;-80
2022/09/07 07:46:02;;;;;;;39.17;28.80;;;17.00;99.90;;;;;;5054725;28;20127;-81
2022/09/07 07:48:33;;;;;;;36.10;29.17;;;17.00;99.90;;;;;;5054700;28;20400;-80
2022/09/07 07:51:08;;;;;;;31.58;27.05;;;17.00;99.90;;;;;;5037798;28;20047;-80
2022/09/07 07:53:36;;;;;;;35.92;29.25;;;17.00;99.90;;;;;;5038638;28;20038;-80
2022/09/07 07:56:03;;;;;;;37.25;29.27;;;17.10;99.90;;;;;;5021506;28;20496;-80
2022/09/07 07:58:30;;;;;;;36.80;29.10;;;17.10;99.90;;;;;;5054202;28;20508;-80
2022/09/07 08:01:07;;;;;;;39.45;29.98;;;17.10;99.90;;;;;;5071625;28;20065;-80
2022/09/07 08:03:38;;;;;;;43.05;32.35;;;17.20;99.90;;;;;;5070922;28;20050;-81
2022/09/07 08:06:15;;;;;;;34.92;28.52;;;17.20;99.90;;;;;;5054539;28;20043;-80
2022/09/07 08:08:41;;;;;;;41.95;31.83;;;17.20;99.90;;;;;;5037999;28;20049;-80
2022/09/07 08:11:10;;;;;;;40.88;32.05;;;17.30;99.90;;;;;;5037818;28;20133;-80
2022/09/07 08:13:39;;;;;;;42.53;30.40;;;17.30;99.90;;;;;;5037543;28;20108;-80
2022/09/07 08:16:05;;;;;;;35.97;28.52;;;17.40;99.90;;;;;;5071340;28;20559;-81
2022/09/07 08:18:35;;;;;;;41.35;32.25;;;17.50;99.90;;;;;;5070800;28;20069;-80
2022/09/07 08:21:03;;;;;;;36.72;29.50;;;17.60;99.90;;;;;;5037825;28;20404;-81
2022/09/07 08:23:31;;;;;;;34.88;29.30;;;17.70;99.90;;;;;;5037135;28;20043;-81
2022/09/07 08:26:00;;;;;;;36.05;29.75;;;17.80;99.90;;;;;;5053984;28;20054;-81
2022/09/07 08:28:28;;;;;;;35.67;29.17;;;18.00;99.90;;;;;;5053821;28;20073;-81
2022/09/07 08:30:55;;;;;;;36.45;28.95;;;18.10;99.90;;;;;;5053919;28;20049;-81
2022/09/07 08:33:21;;;;;;;35.28;29.80;;;18.10;99.90;;;;;;5037621;28;20043;-81
2022/09/07 08:35:56;;;;;;;31.08;26.42;;;18.20;99.90;;;;;;5071042;28;20630;-81
2022/09/07 08:38:22;;;;;;;37.35;27.88;;;18.10;99.90;;;;;;5053774;28;20042;-81
2022/09/07 08:40:48;;;;;;;31.75;27.27;;;18.10;99.90;;;;;;5054138;28;20035;-81
2022/09/07 08:43:14;;;;;;;30.15;26.85;;;18.10;99.90;;;;;;5037353;28;20046;-81
2022/09/07 08:45:50;;;;;;;32.25;27.35;;;18.20;99.90;;;;;;5070746;28;20407;-81
2022/09/07 08:48:22;;;;;;;35.83;29.60;;;18.20;99.90;;;;;;5071865;28;20369;-81
2022/09/07 08:51:05;;;;;;;35.08;28.75;;;18.20;99.90;;;;;;5041229;28;20627;-81
2022/09/07 08:53:32;;;;;;;40.10;31.75;;;18.20;99.90;;;;;;5057955;28;20160;-81
2022/09/07 08:56:05;;;;;;;34.65;28.52;;;18.20;99.90;;;;;;5040950;28;20055;-81
2022/09/07 08:58:30;;;;;;;35.22;28.17;;;18.20;99.90;;;;;;5040796;28;20388;-81
2022/09/07 09:00:57;;;;;;;35.78;29.23;;;18.30;99.90;;;;;;5073843;28;20049;-81
2022/09/07 09:03:32;;;;;;;32.20;27.88;;;18.30;99.90;;;;;;5040595;28;20126;-81
2022/09/07 09:06:21;;;;;;;33.05;29.48;;;18.40;99.90;;;;;;5057717;28;20047;-81
2022/09/07 09:09:08;;;;;;;34.55;28.67;;;18.60;99.90;;;;;;5074191;28;20054;-81
2022/09/07 09:12:09;;;;;;;35.42;28.88;;;18.70;99.90;;;;;;5074547;28;20042;-81
2022/09/07 09:14:40;;;;;;;28.27;24.20;;;18.90;99.90;;;;;;5007459;28;20043;-80
2022/09/07 09:17:32;;;;;;;30.63;27.10;;;19.00;99.90;;;;;;5074060;28;20268;-80
2022/09/07 09:20:07;;;;;;;28.60;25.13;;;19.10;99.90;;;;;;5057459;28;20440;-80
2022/09/07 09:22:34;;;;;;;27.83;24.92;;;19.20;99.90;;;;;;5057120;28;20043;-80
2022/09/07 09:25:17;;;;;;;28.50;24.83;;;19.40;99.90;;;;;;5073544;28;20042;-80
2022/09/07 09:27:42;;;;;;;24.63;22.00;;;19.70;99.90;;;;;;5074257;28;20034;-80
2022/09/07 09:30:13;;;;;;;26.60;23.15;;;19.80;99.90;;;;;;5073769;28;20046;-80
2022/09/07 09:32:42;;;;;;;25.92;22.25;;;20.00;99.90;;;;;;5057752;28;20047;-80
2022/09/07 09:35:15;;;;;;;24.85;21.90;;;20.20;99.90;;;;;;5073925;28;20081;-80
2022/09/07 09:37:42;;;;;;;24.65;22.00;;;20.40;99.90;;;;;;5057487;28;20049;-81
2022/09/07 09:40:32;;;;;;;23.05;18.88;;;20.70;99.90;;;;;;5040267;28;20054;-81
2022/09/07 09:43:22;;;;;;;22.45;18.92;;;21.00;99.90;;;;;;5074090;28;20054;-81
2022/09/07 09:45:51;;;;;;;21.65;19.15;;;21.30;99.90;;;;;;5056943;28;20134;-81
2022/09/07 09:48:20;;;;;;;19.63;17.58;;;21.60;99.90;;;;;;5040165;28;20039;-81
2022/09/07 09:50:52;;;;;;;19.20;17.17;;;21.80;99.90;;;;;;5074022;28;20515;-81
2022/09/07 09:53:39;;;;;;;18.02;16.20;;;22.10;99.90;;;;;;5073847;28;20031;-81
2022/09/07 09:56:06;;;;;;;16.77;15.10;;;22.30;99.90;;;;;;5039912;28;20085;-81
2022/09/07 09:58:35;;;;;;;13.77;12.38;;;22.70;99.90;;;;;;5057050;28;20075;-81
2022/09/07 10:01:19;;;;;;;12.63;11.10;;;22.80;99.90;;;;;;5038604;28;20130;-82
2022/09/07 10:03:45;;;;;;;11.65;10.27;;;23.10;99.90;;;;;;5056800;28;20043;-82
2022/09/07 10:06:14;;;;;;;12.50;10.95;;;23.60;99.90;;;;;;5073717;28;20050;-82
2022/09/07 10:08:55;;;;;;;11.30;9.57;;;24.10;99.90;;;;;;5040013;28;20047;-82
2022/09/07 10:11:46;;;;;;;10.05;8.45;;;24.50;99.90;;;;;;5073275;28;20051;-82
2022/09/07 10:14:29;;;;;;;9.20;7.95;;;24.60;99.90;;;;;;5039936;28;20087;-81
2022/09/07 10:16:56;;;;;;;8.20;7.38;;;24.40;99.90;;;;;;5056869;28;20096;-81
2022/09/07 10:19:35;;;;;;;8.65;7.25;;;24.30;99.90;;;;;;5073270;28;20119;-82
2022/09/07 10:22:20;;;;;;;7.22;6.47;;;24.70;99.90;;;;;;5056873;28;20461;-81
2022/09/07 10:24:46;;;;;;;6.97;6.28;;;25.00;99.90;;;;;;5056929;28;20042;-82
2022/09/07 10:27:32;;;;;;;;;;;25.20;99.90;;;;;;5040004;28;20039;-82
2022/09/07 10:29:58;;;;;;;7.75;6.30;;;25.20;99.90;;;;;;5028993;28;20360;-82
2022/09/07 10:32:33;;;;;;;6.65;6.05;;;25.50;99.90;;;;;;5073416;28;20495;-82
2022/09/07 10:35:37;;;;;;;6.90;6.20;;;25.40;99.90;;;;;;5039682;28;20054;-82
2022/09/07 10:38:15;;;;;;;5.90;5.30;;;25.00;99.90;;;;;;5006264;28;20138;-82
2022/09/07 10:41:06;;;;;;;5.30;4.65;;;25.10;99.90;;;;;;5039648;28;20073;-82
2022/09/07 10:43:49;;;;;;;4.65;4.25;;;25.70;99.90;;;;;;5038857;28;20074;-83
2022/09/07 10:46:29;;;;;;;5.30;4.60;;;26.50;99.90;;;;;;5072777;28;20078;-82
2022/09/07 10:49:11;;;;;;;5.70;4.78;;;27.30;99.90;;;;;;5039283;28;20035;-82
2022/09/07 10:51:43;;;;;;;5.45;4.25;;;27.80;99.90;;;;;;5072744;28;20070;-82
2022/09/07 10:54:23;;;;;;;4.50;4.03;;;28.30;99.90;;;;;;5039318;28;20107;-82
2022/09/07 10:57:01;;;;;;;5.72;4.03;;;28.50;99.90;;;;;;5073263;28;20523;-82
2022/09/07 11:00:09;;;;;;;5.10;4.60;;;28.50;99.90;;;;;;5039044;28;20045;-83
2022/09/07 11:03:12;;;;;;;6.13;4.60;;;28.50;99.90;;;;;;5055334;28;20043;-82
2022/09/07 11:05:56;;;;;;;6.53;4.65;;;27.70;99.90;;;;;;5055459;28;20086;-83
2022/09/07 11:08:33;;;;;;;6.68;4.50;;;27.40;99.90;;;;;;5039132;28;20396;-82
2022/09/07 11:11:29;;;;;;;7.47;4.90;;;27.20;99.90;;;;;;5071724;28;20078;-83
2022/09/07 11:14:01;;;;;;;7.20;4.60;;;27.10;99.90;;;;;;5072471;28;20177;-83
2022/09/07 11:16:32;;;;;;;6.15;4.50;;;26.90;99.90;;;;;;5072262;28;20200;-83
2022/09/07 11:19:22;;;;;;;5.03;4.22;;;26.50;99.90;;;;;;5068716;28;20093;-83
2022/09/07 11:22:26;;;;;;;5.07;4.30;;;26.20;99.90;;;;;;5052312;28;20048;-83
2022/09/07 11:24:59;;;;;;;5.45;4.68;;;26.10;99.90;;;;;;5049478;28;20056;-83
2022/09/07 11:27:32;;;;;;;5.53;4.60;;;26.30;99.90;;;;;;5085550;28;20044;-83
2022/09/07 11:30:20;;;;;;;4.65;4.05;;;26.60;99.90;;;;;;5052131;28;20044;-83
2022/09/07 11:33:11;;;;;;;3.58;3.22;;;27.10;99.90;;;;;;5052483;28;20412;-84
2022/09/07 11:35:45;;;;;;;3.47;2.72;;;27.50;99.90;;;;;;5069156;28;20711;-83
2022/09/07 11:38:38;;;;;;;3.95;2.30;;;28.10;99.90;;;;;;5068941;28;20394;-84
2022/09/07 11:41:28;;;;;;;3.63;2.25;;;28.20;99.90;;;;;;5045964;28;20140;-83
2022/09/07 11:44:17;;;;;;;3.28;1.98;;;28.30;99.90;;;;;;5085922;28;20136;-84
2022/09/07 11:47:01;;;;;;;3.92;1.92;;;28.80;99.90;;;;;;5069034;28;20041;-84
2022/09/07 11:49:26;;;;;;;2.47;1.80;;;28.30;99.90;;;;;;5088188;28;20045;-83
2022/09/07 11:51:55;;;;;;;2.05;1.70;;;28.20;99.90;;;;;;5055054;28;20052;-83
2022/09/07 11:54:40;;;;;;;2.13;1.90;;;28.20;99.90;;;;;;5055350;28;20049;-83
2022/09/07 11:57:26;;;;;;;2.70;1.70;;;27.90;99.90;;;;;;5069448;28;20120;-84
2022/09/07 12:00:14;;;;;;;2.45;1.50;;;27.50;99.90;;;;;;5051765;28;20045;-83
2022/09/07 12:02:59;;;;;;;3.17;1.48;;;27.10;99.90;;;;;;5085809;28;20375;-83
2022/09/07 12:05:50;;;;;;;1.88;1.30;;;27.00;99.90;;;;;;5069407;28;20402;-83
2022/09/07 12:08:16;;;;;;;2.95;1.25;;;26.90;99.90;;;;;;5052052;28;20048;-82
2022/09/07 12:11:14;;;;;;;1.63;1.20;;;26.90;99.90;;;;;;5068085;28;20657;-82
2022/09/07 12:14:11;;;;;;;2.25;1.33;;;27.00;99.90;;;;;;5027453;28;20052;-83
2022/09/07 12:17:22;;;;;;;2.03;1.05;;;27.70;99.90;;;;;;5085487;28;20091;-83
2022/09/07 12:20:08;;;;;;;2.13;1.20;;;27.90;99.90;;;;;;5020531;28;20053;-83
2022/09/07 12:22:33;;;;;;;2.22;0.82;;;27.80;99.90;;;;;;5051995;28;20114;-83
2022/09/07 12:25:08;;;;;;;2.78;1.30;;;27.80;99.90;;;;;;5072415;28;20045;-83
2022/09/07 12:27:33;;;;;;;1.73;0.75;;;27.90;99.60;;;;;;5072869;28;20517;-84
2022/09/07 12:30:01;;;;;;;3.10;0.90;;;27.90;99.90;;;;;;5089365;28;20041;-84
2022/09/07 12:33:04;;;;;;;1.27;0.85;;;28.00;99.90;;;;;;5089491;28;20123;-83
2022/09/07 12:35:36;;;;;;;2.40;0.82;;;28.70;99.90;;;;;;5025054;28;20060;-84
2022/09/07 12:38:05;;;;;;;2.20;1.10;;;29.20;99.90;;;;;;5072720;28;20036;-84
2022/09/07 12:40:32;;;;;;;2.50;1.00;;;29.70;99.80;;;;;;5089102;28;20041;-84
2022/09/07 12:43:12;;;;;;;2.70;1.10;;;30.10;99.90;;;;;;5089395;28;20080;-84
2022/09/07 12:45:38;;;;;;;1.73;1.00;;;30.40;98.60;;;;;;5089243;28;20210;-83
2022/09/07 12:48:16;;;;;;;1.98;1.05;;;30.10;99.00;;;;;;5072002;28;20075;-85
2022/09/07 12:50:59;;;;;;;1.30;1.10;;;29.90;98.60;;;;;;5089379;28;20427;-84
2022/09/07 12:53:47;;;;;;;2.20;1.10;;;29.90;98.30;;;;;;5089239;28;20120;-84
2022/09/07 12:56:21;;;;;;;2.45;1.00;;;30.00;98.20;;;;;;5055543;28;20126;-83
2022/09/07 12:59:29;;;;;;;2.10;0.90;;;30.10;97.60;;;;;;5072228;28;20041;-83
2022/09/07 13:02:29;;;;;;;1.60;0.80;;;29.60;97.60;;;;;;5088572;28;20521;-83
2022/09/07 13:05:18;;;;;;;1.35;0.90;;;29.60;97.90;;;;;;5089151;28;20041;-83
2022/09/07 13:08:03;;;;;;;1.50;0.95;;;29.40;97.20;;;;;;5072031;28;20037;-84